Time;durP1;ratioP1;P1;durP2;ratioP2;P2;SDS_P1;SDS_P2;PMS_P1;PMS_P2;Temp;Humidity;BMP_temperature;BMP_pressure;BME280_temperature;BME280_humidity;BME280_pressure;Samples;Min_cycle;Max_cycle;Signal;HPM_P1;HPM_P2
2022/01/29 00:01:23;;;;;;;14.70;5.70;;;;;;;2.71;66.41;99891.33;219919;1283;138599;-59
2022/01/29 00:06:26;;;;;;;12.60;5.20;;;;;;;2.69;66.29;99894.52;219680;1283;138537;-61
2022/01/29 00:11:35;;;;;;;13.30;5.70;;;;;;;2.60;66.10;99898.51;219965;1283;138893;-57
2022/01/29 00:16:40;;;;;;;16.20;5.90;;;;;;;2.54;66.36;99903.50;219988;1283;140002;-57
2022/01/29 00:21:43;;;;;;;14.00;6.00;;;;;;;2.50;66.41;99905.50;219979;1283;138753;-59
2022/01/29 00:26:46;;;;;;;31.90;16.70;;;;;;;2.48;66.54;99912.53;219876;1283;138878;-57
2022/01/29 00:31:50;;;;;;;13.20;6.40;;;;;;;2.61;66.81;99918.83;219827;1283;139370;-58
2022/01/29 00:36:53;;;;;;;13.50;5.90;;;;;;;2.59;66.51;99921.13;220340;1281;139808;-61
2022/01/29 00:41:56;;;;;;;14.30;6.00;;;;;;;2.57;66.45;99924.65;220061;1281;139318;-59
2022/01/29 00:47:18;;;;;;;13.80;5.80;;;;;;;2.52;66.28;99925.59;220102;1282;141295;-58
2022/01/29 00:52:21;;;;;;;14.20;5.80;;;;;;;2.49;66.37;99932.13;219960;1281;139121;-58
2022/01/29 00:57:28;;;;;;;13.30;6.10;;;;;;;2.48;66.27;99935.48;220281;1280;138985;-59
2022/01/29 01:02:31;;;;;;;13.80;6.00;;;;;;;2.43;66.08;99934.85;220265;1281;138572;-60
2022/01/29 01:07:34;;;;;;;14.40;5.60;;;;;;;2.35;66.15;99935.84;220153;1281;138483;-61
2022/01/29 01:12:37;;;;;;;11.50;5.30;;;;;;;2.30;66.04;99930.48;220015;1281;138621;-61
2022/01/29 01:17:40;;;;;;;12.70;6.00;;;;;;;2.29;65.87;99928.23;220254;1280;138413;-60
2022/01/29 01:22:43;;;;;;;12.10;5.10;;;;;;;2.27;65.89;99927.71;220212;1281;138988;-58
2022/01/29 01:27:46;;;;;;;13.00;5.20;;;;;;;2.27;65.86;99925.97;219872;1284;138212;-59
2022/01/29 01:32:50;;;;;;;10.00;4.70;;;;;;;2.27;65.72;99920.72;219926;1281;138682;-61
2022/01/29 01:38:01;;;;;;;10.00;4.90;;;;;;;2.23;65.54;99918.15;220162;1281;138264;-58
2022/01/29 01:43:05;;;;;;;12.20;5.20;;;;;;;2.15;65.42;99913.71;219971;1283;139342;-60
2022/01/29 01:48:08;;;;;;;11.10;4.60;;;;;;;2.08;65.45;99913.45;220006;1281;138050;-57
2022/01/29 01:53:12;;;;;;;9.20;4.70;;;;;;;2.06;65.52;99904.38;220024;1281;138552;-59
2022/01/29 01:58:17;;;;;;;12.60;4.90;;;;;;;2.00;65.44;99902.20;220129;1281;139129;-58
2022/01/29 02:03:20;;;;;;;12.70;5.10;;;;;;;1.95;65.29;99902.43;220189;1282;140256;-60
2022/01/29 02:08:24;;;;;;;12.00;5.40;;;;;;;1.86;65.20;99900.45;219751;1284;139344;-60
2022/01/29 02:13:28;;;;;;;15.60;5.50;;;;;;;1.82;65.32;99906.27;219748;1281;139324;-59
2022/01/29 02:18:31;;;;;;;13.40;5.70;;;;;;;1.80;65.33;99901.56;220233;1281;138898;-58
2022/01/29 02:23:34;;;;;;;14.30;5.60;;;;;;;1.80;65.41;99901.04;220146;1282;138971;-60
2022/01/29 02:28:37;;;;;;;10.50;5.30;;;;;;;1.78;65.27;99902.48;219952;1282;140168;-59
2022/01/29 02:33:40;;;;;;;13.30;5.70;;;;;;;1.72;65.24;99907.44;219827;1282;138396;-59
2022/01/29 02:38:43;;;;;;;15.60;5.70;;;;;;;1.67;65.37;99913.27;220461;1280;139056;-60
2022/01/29 02:43:48;;;;;;;15.10;5.30;;;;;;;1.61;65.32;99913.68;220298;1280;138439;-58
2022/01/29 02:48:54;;;;;;;12.10;5.40;;;;;;;1.57;65.28;99910.25;219966;1282;138674;-58
2022/01/29 02:53:56;;;;;;;12.50;5.40;;;;;;;1.52;65.12;99906.98;219746;1283;139179;-59
2022/01/29 02:58:59;;;;;;;10.10;5.30;;;;;;;1.45;65.13;99908.98;220281;1281;139187;-60
2022/01/29 03:04:03;;;;;;;11.30;5.20;;;;;;;1.34;65.09;99920.45;220239;1281;139002;-59
2022/01/29 03:09:06;;;;;;;11.30;5.60;;;;;;;1.28;65.21;99921.23;219950;1282;139776;-60
2022/01/29 03:14:09;;;;;;;11.40;5.40;;;;;;;1.25;65.43;99912.69;219752;1282;139229;-59
2022/01/29 03:19:12;;;;;;;11.50;6.10;;;;;;;1.23;65.46;99908.52;220296;1281;138995;-58
2022/01/29 03:24:15;;;;;;;13.50;5.90;;;;;;;1.23;65.64;99904.13;220255;1281;139607;-57
2022/01/29 03:29:18;;;;;;;13.70;6.40;;;;;;;1.20;65.49;99898.93;219982;1282;139201;-57
2022/01/29 03:34:21;;;;;;;12.00;5.60;;;;;;;1.16;65.54;99894.78;219903;1282;138385;-58
2022/01/29 03:39:27;;;;;;;13.00;5.70;;;;;;;1.11;65.56;99899.02;220009;1283;139125;-59
2022/01/29 03:44:31;;;;;;;13.00;6.20;;;;;;;1.06;65.47;99897.67;220020;1282;138890;-60
2022/01/29 03:49:34;;;;;;;11.70;5.80;;;;;;;1.02;65.55;99894.73;219815;1282;138189;-59
2022/01/29 03:54:36;;;;;;;12.90;5.70;;;;;;;0.97;65.49;99887.96;219807;1284;138736;-59
2022/01/29 03:59:39;;;;;;;14.00;6.50;;;;;;;0.95;65.53;99884.85;219803;1282;139601;-58
2022/01/29 04:04:42;;;;;;;14.40;6.50;;;;;;;0.96;65.38;99886.41;219853;1282;138665;-57
2022/01/29 04:09:49;;;;;;;15.20;6.90;;;;;;;0.93;65.42;99888.35;219996;1281;139496;-58
2022/01/29 04:14:54;;;;;;;15.40;6.20;;;;;;;0.90;65.50;99881.58;220045;1281;142437;-59
2022/01/29 04:19:57;;;;;;;11.90;6.40;;;;;;;0.85;65.44;99882.32;219608;1283;138727;-59
2022/01/29 04:25:00;;;;;;;12.00;6.40;;;;;;;0.85;65.47;99882.14;219538;1284;139072;-58
2022/01/29 04:30:10;;;;;;;15.20;6.80;;;;;;;0.83;65.45;99883.91;220315;1280;138780;-59
2022/01/29 04:35:13;;;;;;;11.40;6.30;;;;;;;0.79;65.32;99891.45;220224;1281;139234;-60
2022/01/29 04:40:16;;;;;;;40.50;25.50;;;;;;;0.78;65.63;99888.32;219845;1282;139427;-58
2022/01/29 04:45:19;;;;;;;15.80;7.40;;;;;;;1.38;67.64;99879.67;219719;1282;138933;-61
2022/01/29 04:50:23;;;;;;;16.00;6.60;;;;;;;1.50;65.70;99876.75;220172;1280;139517;-60
2022/01/29 04:55:26;;;;;;;20.80;6.80;;;;;;;1.36;65.05;99872.55;220339;1281;232786;-60
2022/01/29 05:00:29;;;;;;;17.10;7.00;;;;;;;1.25;64.99;99877.72;219834;1282;138795;-59
2022/01/29 05:05:32;;;;;;;13.30;6.70;;;;;;;1.14;64.95;99865.96;219923;1280;139370;-62
2022/01/29 05:10:35;;;;;;;14.50;7.40;;;;;;;1.03;64.87;99858.04;220182;1281;140041;-63
2022/01/29 05:31:43;;;;;;;15.30;7.80;;;;;;;0.72;64.80;99840.70;219995;1282;138362;-60
2022/01/29 05:36:47;;;;;;;13.00;6.50;;;;;;;0.65;64.87;99846.02;220183;1280;222983;-63
2022/01/29 05:41:50;;;;;;;14.90;6.40;;;;;;;0.62;65.01;99840.27;219608;1283;140281;-60
2022/01/29 05:46:53;;;;;;;18.40;7.20;;;;;;;0.62;64.96;99844.61;219835;1283;139957;-61
2022/01/29 05:51:56;;;;;;;15.40;6.50;;;;;;;0.58;64.95;99843.10;220102;1281;138442;-60
2022/01/29 05:56:59;;;;;;;15.70;7.20;;;;;;;0.53;64.94;99846.62;220017;1281;139795;-59
2022/01/29 06:02:02;;;;;;;17.20;7.50;;;;;;;0.48;65.08;99841.08;219646;1282;138832;-60
2022/01/29 06:07:06;;;;;;;16.10;8.00;;;;;;;0.42;65.22;99838.85;219462;1283;141193;-61
2022/01/29 06:12:09;;;;;;;16.50;8.10;;;;;;;0.36;65.24;99834.89;220322;1279;138956;-62
2022/01/29 06:17:12;;;;;;;16.00;8.10;;;;;;;0.32;65.43;99835.80;220265;1281;138920;-59
2022/01/29 06:22:15;;;;;;;16.80;7.70;;;;;;;0.28;65.53;99838.27;219724;1282;139183;-59
2022/01/29 06:27:18;;;;;;;14.40;7.00;;;;;;;0.27;65.46;99835.65;219684;1282;139268;-60
2022/01/29 06:32:21;;;;;;;17.40;7.50;;;;;;;0.27;65.52;99831.98;220048;1281;139736;-60
2022/01/29 06:37:24;;;;;;;23.90;8.70;;;;;;;0.27;65.67;99830.25;220157;1281;138958;-59
2022/01/29 06:42:27;;;;;;;17.40;7.80;;;;;;;0.33;65.77;99831.77;219689;1282;139627;-60
2022/01/29 06:47:31;;;;;;;19.20;8.20;;;;;;;0.36;65.81;99825.63;219881;1282;139320;-61
2022/01/29 06:52:34;;;;;;;23.70;9.90;;;;;;;0.39;65.84;99816.02;220104;1281;138227;-60
2022/01/29 06:57:37;;;;;;;19.30;8.60;;;;;;;0.35;65.68;99808.02;220296;1281;139301;-61
2022/01/29 07:02:59;;;;;;;18.20;8.80;;;;;;;0.33;65.87;99803.49;219627;1283;139338;-60
2022/01/29 07:08:04;;;;;;;19.20;8.70;;;;;;;0.36;65.96;99793.54;219583;1283;139092;-59
2022/01/29 07:13:07;;;;;;;16.50;6.80;;;;;;;0.40;66.07;99784.77;220119;1280;139741;-60
2022/01/29 07:18:12;;;;;;;17.20;7.70;;;;;;;0.47;65.89;99789.77;220666;1280;139307;-60
2022/01/29 07:23:16;;;;;;;23.90;8.20;;;;;;;0.56;66.05;99785.50;220166;1280;138682;-59
2022/01/29 07:28:19;;;;;;;17.30;7.00;;;;;;;0.63;66.01;99785.42;219997;1281;138982;-61
2022/01/29 07:33:22;;;;;;;18.00;7.70;;;;;;;0.66;65.91;99782.77;220465;1279;140317;-59
2022/01/29 07:38:25;;;;;;;18.30;8.10;;;;;;;0.74;66.08;99774.65;220540;1279;139498;-59
2022/01/29 07:43:28;;;;;;;18.30;8.10;;;;;;;0.83;65.97;99774.40;219872;1280;139990;-60
2022/01/29 07:48:31;;;;;;;23.90;8.20;;;;;;;0.88;65.81;99772.08;219763;1281;139006;-58
2022/01/29 07:53:34;;;;;;;20.10;8.70;;;;;;;0.94;65.75;99764.84;220110;1280;139561;-60
2022/01/29 07:58:37;;;;;;;17.30;8.10;;;;;;;1.01;65.74;99769.48;220347;1280;139237;-59
2022/01/29 08:03:41;;;;;;;18.60;7.80;;;;;;;1.13;65.44;99764.45;219984;1281;140828;-61
2022/01/29 08:08:44;;;;;;;18.60;7.40;;;;;;;1.27;65.54;99751.34;219703;1283;140191;-59
2022/01/29 08:13:47;;;;;;;23.60;8.50;;;;;;;1.38;65.28;99744.73;220207;1281;139502;-60
2022/01/29 08:18:50;;;;;;;19.10;8.40;;;;;;;1.46;65.25;99751.95;220009;1281;139170;-61
2022/01/29 08:23:53;;;;;;;18.00;8.30;;;;;;;1.54;65.11;99744.67;220183;1280;140190;-59
2022/01/29 08:28:56;;;;;;;21.70;8.80;;;;;;;1.61;64.98;99735.31;220594;1279;138876;-60
2022/01/29 08:34:01;;;;;;;19.10;8.70;;;;;;;1.66;64.73;99726.50;220151;1280;139341;-61
2022/01/29 08:39:04;;;;;;;21.30;8.40;;;;;;;1.69;64.61;99715.95;220161;1280;140538;-62
2022/01/29 08:44:07;;;;;;;23.60;8.10;;;;;;;1.71;64.47;99711.55;220196;1280;138757;-62
2022/01/29 08:49:10;;;;;;;20.40;7.70;;;;;;;1.77;64.42;99705.69;220123;1281;139256;-62
2022/01/29 08:54:13;;;;;;;15.80;7.60;;;;;;;1.86;64.43;99702.21;220041;1280;139329;-61
2022/01/29 08:59:16;;;;;;;20.20;7.70;;;;;;;1.96;64.18;99695.23;220177;1281;139861;-64
2022/01/29 09:04:19;;;;;;;22.50;8.40;;;;;;;2.04;64.06;99697.19;220238;1281;139707;-63
2022/01/29 09:09:26;;;;;;;26.80;10.80;;;;;;;2.13;63.93;99691.80;220161;1280;139702;-64
2022/01/29 09:14:34;;;;;;;19.70;8.10;;;;;;;2.15;63.70;99683.19;220316;1279;140517;-61
2022/01/29 09:19:37;;;;;;;13.60;6.30;;;;;;;2.21;63.67;99678.35;219824;1282;138914;-61
2022/01/29 09:24:40;;;;;;;15.70;7.10;;;;;;;2.28;63.69;99662.47;220228;1280;141257;-60
2022/01/29 09:29:43;;;;;;;21.40;8.40;;;;;;;2.39;63.67;99660.17;220456;1280;139540;-61
2022/01/29 09:34:46;;;;;;;22.60;7.30;;;;;;;2.58;63.98;99650.52;220047;1282;139217;-64
2022/01/29 09:39:50;;;;;;;18.90;6.90;;;;;;;2.79;63.80;99643.77;219824;1282;140611;-64
2022/01/29 09:44:53;;;;;;;20.50;7.90;;;;;;;2.93;63.71;99637.36;220279;1281;139154;-62
2022/01/29 09:49:57;;;;;;;19.50;7.60;;;;;;;3.03;63.54;99631.89;220475;1280;139885;-61
2022/01/29 09:55:00;;;;;;;20.80;7.50;;;;;;;3.13;63.55;99624.84;220073;1281;138876;-65
2022/01/29 10:00:09;;;;;;;16.10;5.60;;;;;;;3.23;63.44;99608.11;219884;1281;141078;-61
2022/01/29 10:05:15;;;;;;;12.60;4.80;;;;;;;3.37;63.37;99597.96;220407;1280;139947;-62
2022/01/29 10:10:19;;;;;;;12.20;4.90;;;;;;;3.47;63.03;99585.45;220392;1280;138810;-60
2022/01/29 10:15:22;;;;;;;16.70;5.50;;;;;;;3.57;62.87;99573.64;220360;1280;139815;-61
2022/01/29 10:20:28;;;;;;;14.50;4.50;;;;;;;3.62;62.69;99567.54;220300;1281;138702;-60
2022/01/29 10:25:34;;;;;;;12.60;4.40;;;;;;;3.70;62.64;99566.80;219987;1281;139112;-64
2022/01/29 10:30:54;;;;;;;14.70;4.50;;;;;;;3.84;62.66;99564.17;219636;1284;139407;-62
2022/01/29 10:36:01;;;;;;;9.90;3.60;;;;;;;3.90;62.30;99549.42;219846;1281;139674;-61
2022/01/29 10:41:22;;;;;;;11.80;3.90;;;;;;;3.97;62.30;99538.36;220086;1281;139392;-62
2022/01/29 10:46:31;;;;;;;9.40;3.00;;;;;;;4.11;62.25;99521.84;220258;1279;139544;-61
2022/01/29 10:51:34;;;;;;;10.70;3.40;;;;;;;4.18;61.85;99511.10;220469;1280;138342;-62
2022/01/29 10:57:00;;;;;;;10.80;3.00;;;;;;;4.28;61.35;99512.56;220228;1280;138126;-62
2022/01/29 11:02:09;;;;;;;10.00;3.20;;;;;;;4.34;61.11;99504.48;220033;1282;139617;-63
2022/01/29 11:07:17;;;;;;;10.40;4.20;;;;;;;4.39;61.30;99502.25;220249;1280;138487;-61
2022/01/29 11:12:22;;;;;;;10.00;4.00;;;;;;;4.34;60.83;99503.25;220476;1280;140154;-61
2022/01/29 11:17:27;;;;;;;11.70;4.20;;;;;;;4.19;60.30;99491.56;220140;1280;139141;-61
2022/01/29 11:22:39;;;;;;;10.50;4.30;;;;;;;3.99;59.93;99476.85;219800;1281;140644;-62
2022/01/29 11:27:42;;;;;;;15.80;4.70;;;;;;;3.92;60.12;99459.33;219929;1282;139546;-59
2022/01/29 11:32:47;;;;;;;10.80;3.70;;;;;;;3.88;60.38;99447.52;220067;1281;139529;-60
2022/01/29 11:38:02;;;;;;;11.40;4.60;;;;;;;3.88;60.23;99436.48;220119;1281;138603;-61
2022/01/29 11:43:21;;;;;;;11.30;4.40;;;;;;;3.86;60.36;99417.58;220440;1280;140389;-64
2022/01/29 11:48:24;;;;;;;15.20;5.00;;;;;;;3.88;60.12;99403.48;220323;1280;138577;-61
2022/01/29 11:53:46;;;;;;;12.60;4.80;;;;;;;3.96;60.23;99394.10;220025;1281;139469;-61
2022/01/29 11:59:23;;;;;;;16.20;4.30;;;;;;;4.04;59.93;99377.89;220346;1279;138947;-59
2022/01/29 12:10:09;;;;;;;10.90;3.90;;;;;;;4.15;59.50;99352.46;219966;1281;139202;-59
2022/01/29 12:15:12;;;;;;;17.20;4.80;;;;;;;4.19;59.38;99347.23;219771;1281;139486;-61
2022/01/29 12:20:18;;;;;;;16.10;4.20;;;;;;;4.25;59.29;99327.90;220033;1281;138545;-60
2022/01/29 12:25:27;;;;;;;13.00;4.50;;;;;;;4.33;59.65;99318.19;219997;1280;139500;-60
2022/01/29 12:30:39;;;;;;;10.10;4.10;;;;;;;4.43;59.64;99307.30;220403;1280;139135;-60
2022/01/29 12:36:02;;;;;;;15.40;4.80;;;;;;;4.51;59.07;99301.42;220580;1280;139307;-60
2022/01/29 12:41:11;;;;;;;13.00;4.90;;;;;;;4.56;59.05;99281.05;220128;1281;139594;-61
2022/01/29 12:46:17;;;;;;;9.90;3.60;;;;;;;4.58;58.86;99267.45;219913;1282;139648;-60
2022/01/29 12:51:20;;;;;;;15.20;4.10;;;;;;;4.60;58.83;99267.05;220073;1282;140087;-60
2022/01/29 12:56:30;;;;;;;10.00;4.10;;;;;;;4.61;59.00;99263.14;220561;1279;139810;-61
2022/01/29 13:01:35;;;;;;;13.00;4.40;;;;;;;4.58;58.70;99255.31;220003;1281;139515;-62
2022/01/29 13:06:39;;;;;;;;;;;;;;;4.56;58.90;99236.79;219951;1280;138577;-59
2022/01/29 13:11:43;;;;;;;15.50;4.90;;;;;;;4.55;59.15;99233.48;220825;1280;125418;-59
2022/01/29 13:16:50;;;;;;;12.00;4.20;;;;;;;4.53;59.18;99219.66;220602;1280;138749;-59
2022/01/29 13:22:04;;;;;;;15.60;4.50;;;;;;;4.48;58.96;99208.76;220052;1281;139513;-62
2022/01/29 13:27:28;;;;;;;11.40;4.60;;;;;;;4.42;59.05;99210.73;219874;1280;138777;-58
2022/01/29 13:32:32;;;;;;;10.70;4.50;;;;;;;4.34;59.07;99202.04;220353;1280;139722;-62
2022/01/29 13:37:35;;;;;;;11.50;4.50;;;;;;;4.29;59.30;99197.14;220484;1281;139117;-59
2022/01/29 13:42:53;;;;;;;12.60;4.20;;;;;;;4.24;59.69;99195.86;219934;1280;139550;-61
2022/01/29 13:48:00;;;;;;;10.80;4.30;;;;;;;4.13;60.03;99194.32;220176;1280;140266;-61
2022/01/29 13:53:12;;;;;;;8.00;3.30;;;;;;;3.95;60.55;99190.71;220574;1281;138984;-60
2022/01/29 13:58:15;;;;;;;83.50;39.60;;;;;;;3.82;61.00;99182.88;220430;1280;139160;-60
2022/01/29 14:03:19;;;;;;;24.30;11.10;;;;;;;3.82;61.75;99178.30;219834;1281;139017;-61
2022/01/29 14:08:23;;;;;;;14.40;5.50;;;;;;;3.83;61.91;99155.13;219732;1281;139608;-61
2022/01/29 14:13:29;;;;;;;17.20;6.40;;;;;;;3.69;62.08;99137.87;220370;1280;138963;-60
2022/01/29 14:18:34;;;;;;;14.50;5.60;;;;;;;3.51;62.62;99130.53;220308;1281;138139;-60
2022/01/29 14:23:37;;;;;;;12.50;4.50;;;;;;;3.37;62.91;99126.26;220197;1281;139162;-60
2022/01/29 14:28:54;;;;;;;17.80;5.60;;;;;;;3.29;63.39;99110.55;219976;1281;139039;-61
2022/01/29 14:33:58;;;;;;;12.20;5.20;;;;;;;3.25;63.55;99095.58;220354;1281;138919;-62
2022/01/29 14:39:04;;;;;;;11.30;4.50;;;;;;;3.20;64.08;99083.11;220432;1280;138628;-60
2022/01/29 14:44:07;;;;;;;;;;;;;;;3.18;64.31;99076.86;219924;1283;139048;-60
2022/01/29 14:49:11;;;;;;;15.10;5.60;;;;;;;3.44;66.17;99065.67;220073;1281;125033;-60
2022/01/29 14:54:14;;;;;;;13.00;4.90;;;;;;;3.60;65.00;99062.73;220409;1281;140470;-61
2022/01/29 14:59:17;;;;;;;11.90;5.20;;;;;;;3.61;64.81;99048.66;220599;1280;139849;-61
2022/01/29 15:04:20;;;;;;;15.60;5.50;;;;;;;3.61;64.80;99041.13;219924;1284;139060;-61
2022/01/29 15:09:25;;;;;;;11.90;5.00;;;;;;;3.60;64.72;99030.80;219643;1281;139038;-60
2022/01/29 15:14:28;;;;;;;49.10;24.10;;;;;;;3.53;64.74;99020.50;220339;1280;138565;-62
2022/01/29 15:19:31;;;;;;;20.60;8.20;;;;;;;3.55;65.11;99010.42;220409;1280;138899;-61
2022/01/29 15:24:34;;;;;;;11.90;5.80;;;;;;;3.55;64.81;98997.98;220093;1281;139151;-61
2022/01/29 15:29:38;;;;;;;15.90;6.50;;;;;;;3.50;64.86;98992.88;220235;1281;138552;-61
2022/01/29 15:34:42;;;;;;;12.40;5.60;;;;;;;3.45;64.62;98971.83;220300;1280;139015;-60
2022/01/29 15:39:45;;;;;;;10.90;5.40;;;;;;;3.45;64.88;98954.81;220541;1280;139695;-65
2022/01/29 15:45:08;;;;;;;13.50;5.80;;;;;;;3.49;64.76;98943.82;220013;1282;140050;-62
2022/01/29 15:50:12;;;;;;;10.60;5.60;;;;;;;3.48;64.68;98932.80;220072;1281;139610;-61
2022/01/29 15:55:15;;;;;;;13.80;5.80;;;;;;;3.49;64.57;98926.27;220391;1280;138898;-61
2022/01/29 16:00:22;;;;;;;13.70;6.20;;;;;;;3.48;64.56;98917.86;220508;1280;138937;-62
2022/01/29 16:05:25;;;;;;;16.80;7.00;;;;;;;3.50;64.65;98902.75;220134;1281;138763;-62
2022/01/29 16:10:28;;;;;;;12.30;6.40;;;;;;;3.53;64.63;98891.77;220031;1281;139164;-61
2022/01/29 16:15:32;;;;;;;13.30;6.10;;;;;;;3.57;64.41;98881.61;220308;1280;139319;-62
2022/01/29 16:20:35;;;;;;;13.50;6.20;;;;;;;3.59;64.65;98872.59;220503;1280;139569;-61
2022/01/29 16:25:40;;;;;;;10.70;5.00;;;;;;;3.58;64.49;98857.90;219788;1281;138649;-63
2022/01/29 16:30:44;;;;;;;12.30;5.20;;;;;;;3.51;64.31;98851.14;219924;1281;138939;-63
2022/01/29 16:35:49;;;;;;;11.20;5.10;;;;;;;3.45;64.92;98848.19;220375;1280;138895;-64
2022/01/29 16:41:11;;;;;;;8.40;5.10;;;;;;;3.35;64.88;98843.49;220291;1280;138715;-63
2022/01/29 16:46:14;;;;;;;12.30;5.60;;;;;;;3.20;65.11;98844.35;219905;1280;140470;-63
2022/01/29 16:51:17;;;;;;;12.40;6.30;;;;;;;3.06;65.52;98851.52;219865;1282;139306;-64
2022/01/29 16:56:20;;;;;;;13.50;6.60;;;;;;;2.89;66.06;98845.64;220402;1279;139499;-63
2022/01/29 17:01:29;;;;;;;39.30;20.60;;;;;;;2.74;66.77;98839.98;221082;1277;138688;-61
2022/01/29 17:06:33;;;;;;;13.20;6.70;;;;;;;2.73;67.08;98827.23;220074;1280;139774;-61
2022/01/29 17:11:36;;;;;;;13.60;6.00;;;;;;;2.68;67.24;98822.52;220500;1279;139146;-61
2022/01/29 17:16:45;;;;;;;17.30;6.10;;;;;;;2.62;67.52;98809.56;221484;1277;139116;-61
2022/01/29 17:21:49;;;;;;;11.70;5.70;;;;;;;2.53;67.69;98793.42;221551;1277;138415;-61
2022/01/29 17:26:53;;;;;;;14.70;6.50;;;;;;;2.47;67.87;98775.23;220549;1280;140103;-63
2022/01/29 17:31:56;;;;;;;12.80;6.70;;;;;;;2.59;68.92;98766.94;220288;1280;138781;-61
2022/01/29 17:36:59;;;;;;;11.50;5.90;;;;;;;2.69;68.57;98743.48;220460;1277;308179;-59
2022/01/29 17:42:02;;;;;;;14.10;6.90;;;;;;;2.63;68.40;98731.42;221186;1277;139259;-60
2022/01/29 17:47:06;;;;;;;11.00;5.60;;;;;;;2.62;68.60;98719.38;220369;1280;139132;-60
2022/01/29 17:52:11;;;;;;;12.20;6.20;;;;;;;2.66;68.82;98695.95;220399;1280;140006;-60
2022/01/29 17:57:14;;;;;;;12.60;6.20;;;;;;;2.69;68.94;98684.81;220876;1277;139294;-62
2022/01/29 18:02:18;;;;;;;11.90;6.00;;;;;;;2.72;68.99;98668.42;220808;1277;138817;-60
2022/01/29 18:07:21;;;;;;;13.20;5.80;;;;;;;2.68;69.04;98662.62;220523;1279;138313;-60
2022/01/29 18:12:28;;;;;;;15.00;5.80;;;;;;;2.64;69.16;98639.98;220553;1279;139220;-60
2022/01/29 18:17:31;;;;;;;13.20;6.00;;;;;;;2.63;69.29;98603.79;221072;1277;139481;-60
2022/01/29 18:22:40;;;;;;;10.10;5.80;;;;;;;2.65;69.66;98585.67;220949;1277;139572;-61
2022/01/29 18:27:48;;;;;;;9.20;5.60;;;;;;;2.66;69.60;98557.26;220597;1278;139366;-62
2022/01/29 18:32:58;;;;;;;11.00;6.00;;;;;;;2.68;69.70;98548.78;220671;1279;138861;-60
2022/01/29 18:38:01;;;;;;;8.90;5.10;;;;;;;2.71;69.99;98528.86;221036;1277;138998;-61
2022/01/29 18:43:04;;;;;;;11.30;5.30;;;;;;;2.77;69.92;98521.23;221158;1277;140464;-62
2022/01/29 18:48:08;;;;;;;12.90;6.90;;;;;;;2.82;70.06;98509.85;220886;1277;138820;-60
2022/01/29 18:53:11;;;;;;;13.10;6.80;;;;;;;2.84;70.16;98511.72;220664;1279;138097;-61
2022/01/29 18:58:15;;;;;;;12.80;6.60;;;;;;;2.89;70.37;98516.92;220140;1279;138769;-60
2022/01/29 19:03:18;;;;;;;10.40;5.70;;;;;;;2.96;70.17;98524.19;220913;1277;139061;-62
2022/01/29 19:08:22;;;;;;;10.70;5.70;;;;;;;3.03;70.38;98532.16;220616;1279;139865;-58
2022/01/29 19:13:30;;;;;;;8.40;5.20;;;;;;;3.08;70.40;98512.48;220672;1277;138705;-62
2022/01/29 19:18:33;;;;;;;8.50;5.10;;;;;;;3.11;70.33;98501.02;220828;1277;138925;-60
2022/01/29 19:23:36;;;;;;;9.30;4.80;;;;;;;3.16;70.44;98500.45;221118;1277;139663;-61
2022/01/29 19:28:39;;;;;;;12.10;5.60;;;;;;;3.20;70.46;98504.49;220584;1280;138515;-62
2022/01/29 19:33:42;;;;;;;10.00;5.60;;;;;;;3.24;70.33;98502.40;220575;1280;139015;-59
2022/01/29 19:38:45;;;;;;;12.00;5.60;;;;;;;3.30;70.69;98514.23;220910;1277;138694;-61
2022/01/29 19:43:48;;;;;;;11.60;5.70;;;;;;;3.41;70.81;98496.42;220894;1277;138993;-61
2022/01/29 19:48:51;;;;;;;10.80;6.00;;;;;;;3.50;70.67;98478.32;220580;1279;139380;-60
2022/01/29 19:53:54;;;;;;;10.90;5.10;;;;;;;3.54;70.68;98457.64;220256;1278;138935;-61
2022/01/29 19:58:58;;;;;;;6.60;4.00;;;;;;;3.58;70.78;98453.96;220845;1276;139058;-60
2022/01/29 20:04:01;;;;;;;5.20;3.50;;;;;;;3.67;70.74;98453.23;220995;1277;139421;-62
2022/01/29 20:09:05;;;;;;;6.90;3.80;;;;;;;3.76;70.86;98455.13;220730;1278;139601;-60
2022/01/29 20:14:07;;;;;;;9.10;4.30;;;;;;;3.82;70.90;98447.66;220543;1279;138493;-59
2022/01/29 20:19:15;;;;;;;6.50;3.70;;;;;;;3.89;71.09;98430.50;220761;1277;138598;-62
2022/01/29 20:24:18;;;;;;;6.80;4.40;;;;;;;3.98;70.70;98419.92;221097;1277;139164;-60
2022/01/29 20:29:21;;;;;;;8.00;5.30;;;;;;;4.08;70.89;98421.94;220869;1277;139050;-62
2022/01/29 20:34:25;;;;;;;7.40;4.30;;;;;;;4.13;70.88;98398.70;220343;1279;140256;-61
2022/01/29 20:39:28;;;;;;;7.60;4.30;;;;;;;4.20;70.70;98378.70;220678;1277;140544;-58
2022/01/29 20:44:31;;;;;;;9.30;5.10;;;;;;;4.23;70.50;98377.84;220839;1277;139149;-62
2022/01/29 20:49:36;;;;;;;7.00;4.50;;;;;;;4.25;70.88;98355.45;220620;1277;138427;-58
2022/01/29 20:54:39;;;;;;;7.40;4.90;;;;;;;4.26;70.63;98348.20;220467;1279;140718;-60
2022/01/29 20:59:45;;;;;;;8.50;5.10;;;;;;;4.25;71.02;98349.15;220654;1279;138546;-61
2022/01/29 21:04:51;;;;;;;8.90;5.10;;;;;;;4.27;70.85;98326.06;220530;1278;138582;-60
2022/01/29 21:09:54;;;;;;;9.30;5.70;;;;;;;4.28;70.92;98319.17;220773;1277;139392;-61
2022/01/29 21:14:57;;;;;;;8.40;5.50;;;;;;;4.30;70.73;98308.73;220951;1277;138383;-63
2022/01/29 21:20:01;;;;;;;8.20;4.80;;;;;;;4.38;71.17;98284.98;220635;1277;138455;-60
2022/01/29 21:25:04;;;;;;;7.90;5.40;;;;;;;4.42;71.03;98287.41;220547;1279;138387;-62
2022/01/29 21:30:09;;;;;;;6.20;4.40;;;;;;;4.49;71.03;98282.85;221020;1277;138722;-60
2022/01/29 21:35:12;;;;;;;6.90;4.90;;;;;;;4.54;70.78;98280.48;220969;1277;139333;-61
2022/01/29 21:40:15;;;;;;;6.10;4.40;;;;;;;4.58;70.87;98276.23;220512;1279;140409;-60
2022/01/29 21:45:18;;;;;;;6.70;4.40;;;;;;;4.60;70.68;98266.48;220419;1279;139492;-58
2022/01/29 21:50:21;;;;;;;5.90;4.50;;;;;;;4.67;71.03;98256.45;220708;1277;140902;-62
2022/01/29 21:55:24;;;;;;;8.30;5.20;;;;;;;4.70;70.97;98253.68;220904;1275;138711;-59
2022/01/29 22:00:27;;;;;;;7.10;3.90;;;;;;;4.67;70.87;98247.17;220713;1277;141032;-61
2022/01/29 22:05:30;;;;;;;7.70;4.60;;;;;;;4.65;71.12;98252.17;220526;1279;138949;-58
2022/01/29 22:10:33;;;;;;;7.40;4.50;;;;;;;4.65;71.39;98240.95;220642;1277;138276;-59
2022/01/29 22:15:36;;;;;;;4.60;3.20;;;;;;;4.64;71.64;98229.38;220885;1277;139363;-62
2022/01/29 22:20:39;;;;;;;5.00;2.90;;;;;;;4.71;71.92;98216.39;220679;1277;138884;-62
2022/01/29 22:25:42;;;;;;;4.20;3.20;;;;;;;4.74;72.01;98205.51;220356;1279;138461;-60
2022/01/29 22:30:45;;;;;;;6.80;3.70;;;;;;;4.77;71.73;98187.98;220676;1277;139122;-61
2022/01/29 22:35:48;;;;;;;5.10;2.80;;;;;;;4.83;72.07;98166.39;220988;1277;139618;-61
2022/01/29 22:40:51;;;;;;;5.90;4.20;;;;;;;4.87;71.82;98143.70;220724;1277;138770;-59
2022/01/29 22:45:54;;;;;;;3.50;2.60;;;;;;;4.93;71.98;98137.38;220343;1280;139051;-60
2022/01/29 22:50:57;;;;;;;3.00;2.00;;;;;;;5.04;71.92;98121.50;220675;1277;139918;-62
2022/01/29 22:56:00;;;;;;;140.40;79.80;;;;;;;5.11;71.84;98106.66;221076;1277;139190;-59
2022/01/29 23:01:03;;;;;;;5.70;3.30;;;;;;;5.30;71.96;98092.80;220745;1277;139754;-60
2022/01/29 23:06:07;;;;;;;4.50;2.00;;;;;;;5.48;71.66;98075.44;220702;1278;138584;-61
2022/01/29 23:11:20;;;;;;;3.00;2.00;;;;;;;5.53;71.24;98062.12;220606;1277;138777;-61
2022/01/29 23:26:54;;;;;;;3.70;1.60;;;;;;;5.77;70.81;98018.65;220487;1279;139223;-60
2022/01/29 23:32:05;;;;;;;3.20;1.60;;;;;;;5.87;70.58;98007.51;220889;1277;139534;-61
2022/01/29 23:42:55;;;;;;;3.00;1.70;;;;;;;6.01;70.05;97990.87;220599;1277;139766;-62
2022/01/29 23:53:05;;;;;;;2.60;1.40;;;;;;;6.14;70.02;97962.63;220870;1277;139401;-59
2022/01/29 23:58:08;;;;;;;2.30;1.40;;;;;;;6.19;69.64;97969.35;220918;1277;139059;-60
